Time;durP1;ratioP1;P1;durP2;ratioP2;P2;SDS_P1;SDS_P2;PMS_P1;PMS_P2;Temp;Humidity;BMP_temperature;BMP_pressure;BME280_temperature;BME280_humidity;BME280_pressure;Samples;Min_cycle;Max_cycle;Signal;HPM_P1;HPM_P2
2022/01/21 00:02:13;;;;;;;22.80;5.50;;;;;;;-2.83;68.59;98558.49;106072;1274;99249;-71
2022/01/21 00:04:41;;;;;;;22.60;5.70;;;;;;;-2.84;68.93;98561.98;105929;1274;96590;-72
2022/01/21 00:07:09;;;;;;;23.60;5.90;;;;;;;-2.85;68.99;98563.40;106072;1274;112834;-72
2022/01/21 00:09:37;;;;;;;19.10;5.30;;;;;;;-2.86;69.03;98567.06;106104;1273;99233;-70
2022/01/21 00:12:05;;;;;;;18.70;5.00;;;;;;;-2.86;68.82;98573.33;106051;1273;107398;-71
2022/01/21 00:14:33;;;;;;;24.00;6.30;;;;;;;-2.85;68.78;98572.79;106071;1273;99183;-71
2022/01/21 00:17:00;;;;;;;23.10;5.60;;;;;;;-2.86;68.77;98577.67;106129;1274;99319;-72
2022/01/21 00:19:36;;;;;;;22.50;5.70;;;;;;;-2.87;68.87;98579.08;106055;1274;112630;-72
2022/01/21 00:30:25;;;;;;;22.70;6.30;;;;;;;-2.84;69.25;98588.02;105894;1274;100019;-71
2022/01/21 00:32:54;;;;;;;23.40;6.40;;;;;;;-2.81;69.02;98590.89;105852;1274;114147;-72
2022/01/21 00:35:22;;;;;;;23.40;5.80;;;;;;;-2.78;69.15;98587.00;105941;1274;99342;-70
2022/01/21 00:37:50;;;;;;;21.40;5.10;;;;;;;-2.75;68.89;98589.86;106069;1274;107604;-69
2022/01/21 00:40:22;;;;;;;21.50;5.80;;;;;;;-2.72;68.98;98591.35;106045;1274;99324;-70
2022/01/21 00:43:09;;;;;;;19.70;6.10;;;;;;;-2.69;69.28;98598.05;106146;1274;99188;-72
2022/01/21 00:45:37;;;;;;;23.60;6.20;;;;;;;-2.67;68.99;98595.55;106210;1273;113770;-74
2022/01/21 00:48:06;;;;;;;19.60;6.00;;;;;;;-2.65;69.19;98594.13;106257;1273;99234;-73
2022/01/21 00:50:34;;;;;;;20.60;5.10;;;;;;;-2.62;69.11;98602.20;106243;1274;107669;-72
2022/01/21 00:53:03;;;;;;;21.10;5.60;;;;;;;-2.60;69.12;98601.80;106153;1273;99238;-72
2022/01/21 00:55:31;;;;;;;19.40;5.40;;;;;;;-2.58;69.14;98597.23;106175;1274;99290;-71
2022/01/21 00:57:58;;;;;;;26.50;6.50;;;;;;;-2.56;69.16;98599.45;106169;1274;113724;-72
2022/01/21 01:00:26;;;;;;;19.50;5.30;;;;;;;-2.55;69.11;98589.35;106176;1274;99209;-71
2022/01/21 01:02:55;;;;;;;23.40;6.70;;;;;;;-2.55;69.26;98596.11;106211;1272;107727;-72
2022/01/21 01:05:23;;;;;;;22.30;6.80;;;;;;;-2.54;69.29;98598.88;106134;1274;99319;-71
2022/01/21 01:07:53;;;;;;;27.00;7.00;;;;;;;-2.54;69.29;98600.08;106160;1274;99346;-71
2022/01/21 01:10:37;;;;;;;25.50;6.90;;;;;;;-2.52;69.23;98607.51;106213;1274;112532;-72
2022/01/21 01:21:26;;;;;;;24.90;6.10;;;;;;;-2.54;69.42;98599.91;106272;1274;99269;-71
2022/01/21 01:27:36;;;;;;;27.40;8.20;;;;;;;-2.55;69.36;98606.54;106238;1273;111285;-71
2022/01/21 01:29:37;;;;;;;23.80;8.00;;;;;;;-2.58;69.11;98611.29;106165;1274;107797;-72
2022/01/21 01:32:06;;;;;;;23.00;7.30;;;;;;;-2.59;68.96;98614.80;106139;1274;99938;-71
2022/01/21 01:34:35;;;;;;;17.20;5.20;;;;;;;-2.60;69.47;98610.83;106170;1274;99239;-71
2022/01/21 01:37:10;;;;;;;23.90;5.80;;;;;;;-2.61;69.30;98611.73;106168;1274;112838;-71
2022/01/21 01:39:45;;;;;;;20.30;5.90;;;;;;;-2.64;69.43;98618.39;106164;1273;99314;-71
2022/01/21 01:49:27;;;;;;;25.60;5.80;;;;;;;-2.64;69.11;98627.93;106021;1275;97895;-70
2022/01/21 01:51:12;;;;;;;17.60;5.70;;;;;;;-2.65;69.18;98632.47;106104;1274;112615;-71
2022/01/21 01:53:54;;;;;;;19.40;5.50;;;;;;;-2.64;69.34;98630.38;106053;1274;100051;-71
2022/01/21 01:56:34;;;;;;;28.50;6.30;;;;;;;-2.65;69.53;98638.91;106128;1274;107572;-71
2022/01/21 01:59:04;;;;;;;19.90;5.30;;;;;;;-2.66;69.21;98637.20;106119;1274;97252;-72
2022/01/21 02:01:32;;;;;;;14.70;4.60;;;;;;;-2.66;69.28;98641.21;106153;1274;99246;-72
2022/01/21 02:04:00;;;;;;;19.80;5.70;;;;;;;-2.66;69.15;98646.94;106081;1274;112722;-72
2022/01/21 02:06:28;;;;;;;21.20;5.30;;;;;;;-2.66;69.23;98653.54;106164;1273;99326;-71
2022/01/21 02:08:56;;;;;;;16.90;5.20;;;;;;;-2.66;69.57;98655.25;106091;1274;108277;-71
2022/01/21 02:11:24;;;;;;;18.60;4.70;;;;;;;-2.65;69.35;98659.23;106128;1274;99189;-72
2022/01/21 02:13:58;;;;;;;13.20;4.30;;;;;;;-2.65;69.47;98656.27;106200;1274;97129;-71
2022/01/21 02:21:46;;;;;;;16.00;4.40;;;;;;;-2.65;69.16;98661.13;106190;1274;107462;-71
2022/01/21 02:24:23;;;;;;;17.40;4.90;;;;;;;-2.66;69.25;98658.40;106225;1274;99297;-70
2022/01/21 02:26:52;;;;;;;15.60;5.10;;;;;;;-2.68;69.24;98654.61;106227;1274;97220;-72
2022/01/21 02:29:32;;;;;;;17.40;4.90;;;;;;;-2.70;69.41;98651.19;106082;1274;112745;-71
2022/01/21 02:32:01;;;;;;;16.80;4.60;;;;;;;-2.71;69.22;98645.48;106096;1274;99320;-72
2022/01/21 02:34:30;;;;;;;14.60;4.40;;;;;;;-2.72;69.18;98645.00;106175;1274;107649;-69
2022/01/21 02:36:58;;;;;;;14.50;4.30;;;;;;;-2.74;69.25;98649.20;106127;1274;99255;-69
2022/01/21 02:39:26;;;;;;;13.30;4.00;;;;;;;-2.76;69.37;98647.86;106206;1273;99263;-70
2022/01/21 02:41:55;;;;;;;17.30;4.30;;;;;;;-2.77;69.19;98649.81;106171;1274;112796;-70
2022/01/21 02:44:24;;;;;;;17.20;4.20;;;;;;;-2.79;69.10;98653.67;106135;1274;97211;-70
2022/01/21 02:46:58;;;;;;;12.80;3.90;;;;;;;-2.81;69.13;98646.94;106193;1273;107832;-70
2022/01/21 02:49:27;;;;;;;15.80;4.30;;;;;;;-2.83;69.05;98646.83;106190;1274;99211;-73
2022/01/21 02:51:57;;;;;;;15.90;4.30;;;;;;;-2.88;69.03;98645.73;106280;1274;99343;-73
2022/01/21 02:54:25;;;;;;;16.50;4.60;;;;;;;-2.89;68.83;98654.27;106161;1274;113249;-71
2022/01/21 02:56:53;;;;;;;12.70;4.30;;;;;;;-2.91;68.99;98658.65;106243;1274;96544;-72
2022/01/21 02:59:21;;;;;;;15.20;3.80;;;;;;;-2.92;68.91;98656.60;106096;1273;107724;-72
2022/01/21 03:01:50;;;;;;;21.20;4.80;;;;;;;-2.92;68.79;98662.32;106160;1274;100334;-70
2022/01/21 03:04:29;;;;;;;13.00;4.20;;;;;;;-2.91;68.80;98661.95;106202;1274;96976;-72
2022/01/21 03:06:58;;;;;;;12.90;4.50;;;;;;;-2.90;68.86;98661.23;106125;1274;112422;-72
2022/01/21 03:09:26;;;;;;;14.90;4.10;;;;;;;-2.89;69.03;98657.02;106227;1274;99243;-73
2022/01/21 03:11:54;;;;;;;11.80;3.80;;;;;;;-2.87;68.94;98659.94;106213;1274;107738;-71
2022/01/21 03:14:22;;;;;;;11.50;4.30;;;;;;;-2.85;68.84;98659.17;106231;1272;99300;-69
2022/01/21 03:16:50;;;;;;;13.50;3.50;;;;;;;-2.83;68.96;98659.48;106063;1275;97712;-72
2022/01/21 03:19:18;;;;;;;16.60;4.10;;;;;;;-2.82;68.99;98661.72;106074;1274;113736;-71
2022/01/21 03:21:46;;;;;;;11.00;3.40;;;;;;;-2.81;69.15;98657.52;106113;1274;99186;-71
2022/01/21 03:24:14;;;;;;;7.10;3.00;;;;;;;-2.81;68.87;98654.92;106136;1274;107220;-72
2022/01/21 03:26:42;;;;;;;13.70;3.80;;;;;;;-2.81;68.82;98647.98;106098;1274;99299;-72
2022/01/21 03:29:10;;;;;;;15.80;3.60;;;;;;;-2.83;68.91;98651.86;106125;1274;99184;-72
2022/01/21 03:31:39;;;;;;;15.20;3.70;;;;;;;-2.85;68.81;98655.88;106058;1274;151449;-72
2022/01/21 03:34:07;;;;;;;16.20;4.10;;;;;;;-2.86;68.66;98661.12;106126;1274;99315;-72
2022/01/21 03:36:35;;;;;;;11.80;3.40;;;;;;;-2.89;68.73;98664.33;106131;1274;107762;-72
2022/01/21 03:39:03;;;;;;;11.40;3.40;;;;;;;-2.90;68.69;98668.34;106138;1274;99229;-72
2022/01/21 03:41:32;;;;;;;12.30;3.70;;;;;;;-2.90;68.52;98673.20;106128;1272;99332;-73
2022/01/21 03:44:00;;;;;;;11.00;3.40;;;;;;;-2.90;68.74;98677.88;106104;1274;112877;-74
2022/01/21 03:46:28;;;;;;;8.80;3.30;;;;;;;-2.89;68.54;98681.32;106184;1274;99127;-73
2022/01/21 03:48:56;;;;;;;10.50;3.50;;;;;;;-2.89;68.75;98686.19;106130;1274;107880;-72
2022/01/21 03:51:24;;;;;;;11.70;3.90;;;;;;;-2.87;68.66;98686.84;106200;1274;99233;-72
2022/01/21 03:53:52;;;;;;;12.60;3.50;;;;;;;-2.87;68.72;98686.14;106174;1274;96657;-72
2022/01/21 03:56:20;;;;;;;11.70;4.00;;;;;;;-2.87;68.50;98688.21;106122;1274;112820;-72
2022/01/21 03:58:51;;;;;;;9.50;3.00;;;;;;;-2.88;68.23;98688.42;106204;1274;99204;-73
2022/01/21 04:01:21;;;;;;;8.20;3.50;;;;;;;-2.91;68.05;98688.84;106164;1274;107758;-72
2022/01/21 04:03:50;;;;;;;8.70;3.50;;;;;;;-2.95;68.42;98682.85;106100;1274;99410;-71
2022/01/21 04:06:18;;;;;;;6.80;3.40;;;;;;;-2.97;68.36;98685.00;106165;1274;99336;-70
2022/01/21 04:08:46;;;;;;;12.20;4.30;;;;;;;-3.00;68.44;98682.80;106178;1274;112681;-70
2022/01/21 04:11:14;;;;;;;13.50;3.30;;;;;;;-3.03;68.17;98690.48;106110;1274;99310;-69
2022/01/21 04:13:43;;;;;;;5.90;2.90;;;;;;;-3.06;68.35;98686.95;106181;1274;107737;-73
2022/01/21 04:16:11;;;;;;;9.10;3.60;;;;;;;-3.10;68.19;98687.20;106232;1274;99336;-73
2022/01/21 04:18:39;;;;;;;11.50;3.30;;;;;;;-3.14;68.36;98688.16;106208;1274;99381;-72
2022/01/21 04:21:07;;;;;;;15.70;3.80;;;;;;;-3.17;68.03;98693.09;106119;1274;112665;-71
2022/01/21 04:23:34;;;;;;;12.50;3.90;;;;;;;-3.21;68.01;98697.16;106110;1274;99227;-69
2022/01/21 04:26:02;;;;;;;9.80;3.50;;;;;;;-3.23;68.27;98696.33;106057;1274;107624;-71
2022/01/21 04:28:30;;;;;;;10.60;4.00;;;;;;;-3.25;67.92;98702.61;106079;1274;99313;-69
2022/01/21 04:30:58;;;;;;;11.20;3.80;;;;;;;-3.26;68.10;98697.95;106177;1274;99184;-71
2022/01/21 04:33:26;;;;;;;9.90;3.30;;;;;;;-3.24;68.21;98697.39;106089;1274;112713;-71
2022/01/21 04:35:54;;;;;;;13.20;4.20;;;;;;;-3.22;68.29;98699.78;106112;1274;99344;-70
2022/01/21 04:38:23;;;;;;;12.50;4.70;;;;;;;-3.22;68.14;98696.83;106086;1274;106278;-72
2022/01/21 04:41:18;;;;;;;13.10;3.90;;;;;;;-3.21;68.22;98696.30;106077;1273;99218;-71
2022/01/21 04:49:18;;;;;;;12.20;4.00;;;;;;;-3.18;68.06;98709.05;106107;1274;99237;-72
2022/01/21 04:52:02;;;;;;;9.20;4.00;;;;;;;-3.18;68.20;98707.84;106075;1274;107808;-73
2022/01/21 04:54:32;;;;;;;9.70;3.40;;;;;;;-3.18;68.14;98708.70;106088;1274;99217;-67
2022/01/21 04:57:02;;;;;;;12.20;4.00;;;;;;;-3.15;68.34;98712.31;106171;1274;96526;-71
2022/01/21 04:59:31;;;;;;;8.90;3.60;;;;;;;-3.15;68.35;98708.65;106222;1273;112653;-69
2022/01/21 05:01:59;;;;;;;13.10;3.90;;;;;;;-3.14;68.03;98707.76;106266;1274;99243;-70
2022/01/21 05:04:27;;;;;;;10.30;3.50;;;;;;;-3.14;68.12;98704.65;106235;1274;107900;-70
2022/01/21 05:06:55;;;;;;;8.80;3.40;;;;;;;-3.15;68.11;98706.22;106151;1274;99318;-69
2022/01/21 05:09:29;;;;;;;11.10;3.90;;;;;;;-3.15;68.23;98701.52;106198;1274;99216;-72
2022/01/21 05:12:00;;;;;;;10.30;3.50;;;;;;;-3.15;68.11;98699.97;106224;1274;112738;-71
2022/01/21 05:14:45;;;;;;;17.70;4.50;;;;;;;-3.15;68.18;98702.23;106026;1274;96546;-72
2022/01/21 05:17:15;;;;;;;13.40;4.40;;;;;;;-3.15;67.98;98714.36;106097;1274;107661;-71
2022/01/21 05:19:43;;;;;;;14.30;3.70;;;;;;;-3.16;67.83;98708.67;106109;1275;97265;-71
2022/01/21 05:22:11;;;;;;;10.30;3.70;;;;;;;-3.16;67.89;98709.18;106145;1274;99226;-72
2022/01/21 05:24:39;;;;;;;9.50;3.40;;;;;;;-3.16;68.05;98711.79;106118;1274;112378;-70
2022/01/21 05:27:08;;;;;;;11.20;3.80;;;;;;;-3.16;67.72;98716.65;106122;1273;99419;-70
2022/01/21 05:29:36;;;;;;;9.90;3.40;;;;;;;-3.15;68.12;98718.88;106117;1274;107694;-71
2022/01/21 05:32:06;;;;;;;11.90;4.30;;;;;;;-3.15;67.97;98717.31;106102;1274;99108;-72
2022/01/21 05:34:34;;;;;;;12.40;4.00;;;;;;;-3.16;67.85;98719.94;106143;1274;99959;-71
2022/01/21 05:37:08;;;;;;;;;;;;;;;-3.17;68.20;98722.05;106160;1274;112728;-70
2022/01/21 05:39:35;;;;;;;14.10;4.70;;;;;;;-3.19;67.81;98726.59;106193;1274;99253;-71
2022/01/21 05:42:06;;;;;;;14.50;4.50;;;;;;;-3.18;68.11;98728.65;106010;1274;107672;-70
2022/01/21 05:47:05;;;;;;;13.40;4.50;;;;;;;-3.20;67.81;98733.73;106107;1274;99245;-71
2022/01/21 05:49:35;;;;;;;14.70;4.10;;;;;;;-3.20;67.72;98734.95;106138;1274;112858;-71
2022/01/21 05:52:15;;;;;;;10.40;3.30;;;;;;;-3.23;67.61;98736.05;106155;1274;99655;-71
2022/01/21 05:54:45;;;;;;;14.90;4.10;;;;;;;-3.25;67.86;98738.00;106085;1274;107769;-71
2022/01/21 05:57:17;;;;;;;12.80;3.80;;;;;;;-3.27;67.58;98730.61;106124;1274;99306;-70
2022/01/21 05:59:45;;;;;;;10.70;3.30;;;;;;;-3.28;67.53;98733.05;106160;1274;99190;-70
2022/01/21 06:02:13;;;;;;;15.00;4.70;;;;;;;-3.31;67.85;98735.02;106136;1274;112748;-71
2022/01/21 06:04:46;;;;;;;14.20;4.00;;;;;;;-3.32;67.55;98740.25;106111;1274;99335;-71
2022/01/21 06:07:14;;;;;;;12.90;4.00;;;;;;;-3.33;67.60;98740.42;106105;1274;107749;-70
2022/01/21 06:09:43;;;;;;;13.60;4.10;;;;;;;-3.33;67.97;98743.92;106156;1274;99226;-71
2022/01/21 06:12:11;;;;;;;11.00;3.60;;;;;;;-3.34;67.80;98750.35;106111;1274;97904;-72
2022/01/21 06:14:39;;;;;;;14.00;4.50;;;;;;;-3.35;67.69;98758.86;106129;1274;112792;-71
2022/01/21 06:17:13;;;;;;;14.20;4.20;;;;;;;-3.37;67.59;98752.98;106190;1274;98962;-70
2022/01/21 06:19:41;;;;;;;23.00;5.60;;;;;;;-3.39;67.71;98752.68;106092;1274;107635;-72
2022/01/21 06:22:10;;;;;;;21.80;6.00;;;;;;;-3.40;67.78;98754.80;106091;1274;97762;-72
2022/01/21 06:24:38;;;;;;;18.30;4.80;;;;;;;-3.40;67.84;98759.47;106170;1274;96695;-72
2022/01/21 06:27:06;;;;;;;16.10;5.10;;;;;;;-3.41;67.86;98753.60;106052;1274;112880;-72
2022/01/21 06:29:34;;;;;;;14.30;4.50;;;;;;;-3.43;67.77;98750.35;106077;1274;99206;-71
2022/01/21 06:32:02;;;;;;;18.10;5.20;;;;;;;-3.45;67.81;98755.25;106088;1274;106043;-72
2022/01/21 06:34:30;;;;;;;15.10;4.50;;;;;;;-3.48;67.76;98752.02;106074;1274;100014;-72
2022/01/21 06:36:58;;;;;;;20.40;5.40;;;;;;;-3.49;67.74;98757.94;106111;1274;99310;-73
2022/01/21 06:39:25;;;;;;;16.80;4.80;;;;;;;-3.50;67.75;98752.91;106117;1274;112669;-71
2022/01/21 06:41:53;;;;;;;16.60;4.60;;;;;;;-3.49;67.91;98755.49;106117;1274;97214;-71
2022/01/21 06:44:21;;;;;;;18.20;4.10;;;;;;;-3.49;67.58;98753.42;106074;1274;107655;-72
2022/01/21 06:46:49;;;;;;;13.50;4.60;;;;;;;-3.50;67.60;98754.32;106104;1274;99263;-71
2022/01/21 06:49:17;;;;;;;12.80;3.90;;;;;;;-3.51;67.72;98754.33;106090;1274;96586;-71
2022/01/21 06:51:45;;;;;;;16.00;4.30;;;;;;;-3.50;67.65;98757.95;106079;1274;112344;-71
2022/01/21 06:54:13;;;;;;;16.70;4.60;;;;;;;-3.50;67.58;98758.13;106153;1274;99246;-72
2022/01/21 06:56:41;;;;;;;17.60;4.80;;;;;;;-3.49;67.65;98762.09;106083;1274;106741;-71
2022/01/21 06:59:09;;;;;;;16.60;4.40;;;;;;;-3.50;67.68;98761.93;106180;1274;99243;-72
2022/01/21 07:01:37;;;;;;;18.40;4.60;;;;;;;-3.50;67.55;98772.50;106229;1274;99207;-73
2022/01/21 07:04:05;;;;;;;17.50;4.30;;;;;;;-3.51;67.55;98776.86;106178;1274;112877;-72
2022/01/21 07:06:32;;;;;;;11.00;3.80;;;;;;;-3.51;67.73;98782.59;106140;1274;99216;-74
2022/01/21 07:09:00;;;;;;;13.50;3.60;;;;;;;-3.50;67.75;98774.77;106036;1274;108672;-73
2022/01/21 07:11:29;;;;;;;15.80;3.90;;;;;;;-3.48;67.57;98777.34;106163;1274;99204;-72
2022/01/21 07:13:57;;;;;;;12.10;3.50;;;;;;;-3.46;67.50;98777.61;106126;1274;98622;-71
2022/01/21 07:16:25;;;;;;;12.60;4.00;;;;;;;-3.45;67.47;98775.34;106110;1274;112978;-73
2022/01/21 07:18:52;;;;;;;12.80;3.80;;;;;;;-3.43;67.52;98777.73;106143;1274;99105;-73
2022/01/21 07:21:20;;;;;;;20.00;3.80;;;;;;;-3.41;67.65;98775.96;106111;1274;107913;-72
2022/01/21 07:23:48;;;;;;;11.80;3.70;;;;;;;-3.40;67.55;98779.42;106130;1274;98319;-75
2022/01/21 07:26:16;;;;;;;17.80;4.40;;;;;;;-3.37;67.44;98782.48;106134;1274;99345;-73
2022/01/21 07:28:44;;;;;;;16.50;3.90;;;;;;;-3.35;67.57;98786.25;106131;1274;112835;-71
2022/01/21 07:31:12;;;;;;;14.50;3.80;;;;;;;-3.33;67.78;98779.95;106224;1274;99203;-72
2022/01/21 07:33:40;;;;;;;15.00;3.80;;;;;;;-3.32;67.51;98786.19;106115;1274;107721;-71
2022/01/21 07:36:08;;;;;;;15.70;4.40;;;;;;;-3.31;67.39;98780.98;106060;1274;99347;-71
2022/01/21 07:38:38;;;;;;;14.60;4.40;;;;;;;-3.30;67.41;98776.45;106123;1274;99226;-72
2022/01/21 07:41:06;;;;;;;20.60;5.00;;;;;;;-3.28;67.46;98773.80;106058;1274;112623;-71
2022/01/21 07:43:39;;;;;;;14.70;5.20;;;;;;;-3.24;67.49;98778.57;105941;1274;99275;-74
2022/01/21 07:46:07;;;;;;;11.40;4.00;;;;;;;-3.20;67.58;98774.34;106058;1274;107709;-74
2022/01/21 07:48:35;;;;;;;19.60;5.70;;;;;;;-3.20;67.36;98781.42;106131;1274;99297;-72
2022/01/21 07:51:03;;;;;;;19.80;4.80;;;;;;;-3.19;67.26;98779.33;106130;1274;99317;-73
2022/01/21 07:53:31;;;;;;;15.80;4.50;;;;;;;-3.18;67.27;98780.34;106194;1274;112683;-72
2022/01/21 07:56:01;;;;;;;16.80;4.40;;;;;;;-3.17;67.44;98778.73;106166;1274;99348;-73
2022/01/21 07:58:31;;;;;;;9.40;3.40;;;;;;;-3.12;67.08;98783.52;106133;1274;106717;-72
2022/01/21 08:00:58;;;;;;;21.70;5.70;;;;;;;-3.09;67.37;98784.33;106081;1274;99351;-72
2022/01/21 08:03:28;;;;;;;17.20;4.50;;;;;;;-3.07;67.43;98783.77;106128;1274;97595;-72
2022/01/21 08:05:56;;;;;;;14.40;4.00;;;;;;;-3.04;67.59;98787.84;106009;1274;112565;-72
2022/01/21 08:08:26;;;;;;;15.20;4.80;;;;;;;-3.01;67.53;98789.35;106077;1274;99325;-71
2022/01/21 08:10:56;;;;;;;17.10;4.60;;;;;;;-3.00;67.46;98788.98;106107;1274;107758;-70
2022/01/21 08:13:27;;;;;;;16.30;4.40;;;;;;;-2.98;67.61;98790.52;106107;1274;99302;-71
2022/01/21 08:15:59;;;;;;;19.60;5.20;;;;;;;-2.97;67.49;98792.55;106170;1274;99232;-72
2022/01/21 08:18:27;;;;;;;18.60;5.10;;;;;;;-2.96;67.45;98782.48;106083;1274;111179;-72
2022/01/21 08:20:55;;;;;;;17.30;4.90;;;;;;;-2.93;67.78;98788.83;106242;1274;99039;-73
2022/01/21 08:23:22;;;;;;;16.10;5.20;;;;;;;-2.91;68.04;98779.76;106074;1274;107712;-72
2022/01/21 08:25:51;;;;;;;15.50;5.30;;;;;;;-2.88;67.68;98781.45;106158;1274;99200;-72
2022/01/21 08:28:22;;;;;;;20.90;5.80;;;;;;;-2.87;67.56;98781.59;106161;1274;99345;-72
2022/01/21 08:30:50;;;;;;;17.50;5.20;;;;;;;-2.86;67.79;98787.45;105988;1274;112648;-70
2022/01/21 08:33:20;;;;;;;17.10;5.50;;;;;;;-2.83;67.59;98789.98;105929;1274;99020;-71
2022/01/21 08:35:48;;;;;;;15.90;5.60;;;;;;;-2.80;67.71;98795.31;105965;1274;107798;-74
2022/01/21 08:38:21;;;;;;;16.10;6.20;;;;;;;-2.76;67.65;98794.86;105958;1274;99352;-72
2022/01/21 08:40:49;;;;;;;17.90;5.20;;;;;;;-2.70;67.66;98800.13;105988;1274;97730;-73
2022/01/21 08:43:17;;;;;;;18.10;6.10;;;;;;;-2.64;67.66;98800.16;106012;1274;113992;-71
2022/01/21 08:45:45;;;;;;;21.10;6.50;;;;;;;-2.59;67.80;98806.11;105901;1274;99299;-74
2022/01/21 08:48:13;;;;;;;16.60;4.70;;;;;;;-2.57;67.51;98805.20;105942;1274;109794;-73
2022/01/21 08:50:41;;;;;;;21.40;5.60;;;;;;;-2.55;67.74;98808.27;105937;1273;99299;-71
2022/01/21 08:53:36;;;;;;;19.60;5.50;;;;;;;-2.55;67.63;98813.30;105924;1274;99209;-73
2022/01/21 08:56:00;;;;;;;17.70;5.50;;;;;;;-2.55;67.53;98811.74;105915;1273;113882;-71
2022/01/21 08:58:28;;;;;;;17.50;4.90;;;;;;;-2.53;67.75;98818.14;106014;1272;99189;-73
2022/01/21 09:00:57;;;;;;;23.20;5.90;;;;;;;-2.52;67.71;98813.09;105961;1274;107907;-69
2022/01/21 09:03:27;;;;;;;17.10;4.90;;;;;;;-2.53;67.97;98813.09;106082;1274;99167;-69
2022/01/21 09:05:56;;;;;;;24.00;7.20;;;;;;;-2.52;67.85;98821.41;106029;1273;99208;-69
2022/01/21 09:08:30;;;;;;;23.30;6.80;;;;;;;-2.53;67.77;98818.13;105993;1274;110768;-72
2022/01/21 09:11:06;;;;;;;23.90;7.10;;;;;;;-2.51;67.90;98817.55;106034;1274;99285;-70
2022/01/21 09:13:39;;;;;;;;;;;;;;;-2.48;67.86;98817.15;105959;1274;108749;-71
2022/01/21 09:16:10;;;;;;;19.70;6.20;;;;;;;-2.45;68.01;98812.40;106079;1274;100657;-74
2022/01/21 09:18:46;;;;;;;20.10;7.00;;;;;;;-2.41;67.99;98814.20;106061;1274;98348;-72
2022/01/21 09:21:33;;;;;;;15.90;5.10;;;;;;;-2.36;67.79;98815.83;105869;1274;113445;-71
2022/01/21 09:24:03;;;;;;;16.40;5.40;;;;;;;-2.35;67.82;98817.52;105912;1273;99272;-72
2022/01/21 09:26:31;;;;;;;16.60;5.40;;;;;;;-2.33;67.63;98819.23;105976;1274;107710;-71
2022/01/21 09:29:03;;;;;;;19.10;5.30;;;;;;;-2.30;67.94;98818.28;105967;1274;99198;-70
2022/01/21 09:31:32;;;;;;;20.00;5.80;;;;;;;-2.29;67.85;98820.69;106102;1274;99233;-72
2022/01/21 09:34:20;;;;;;;22.40;5.30;;;;;;;-2.29;67.89;98819.64;106088;1274;112840;-70
2022/01/21 09:36:48;;;;;;;18.10;6.40;;;;;;;-2.29;67.96;98816.20;106053;1274;99422;-71
2022/01/21 09:39:16;;;;;;;21.90;6.50;;;;;;;-2.29;68.08;98809.77;106103;1274;107742;-72
2022/01/21 09:41:46;;;;;;;21.30;5.30;;;;;;;-2.28;68.15;98812.34;106048;1274;97746;-72
2022/01/21 09:44:17;;;;;;;21.90;7.10;;;;;;;-2.27;67.97;98803.98;106100;1274;99459;-73
2022/01/21 09:46:49;;;;;;;19.90;6.50;;;;;;;-2.26;67.85;98800.81;106079;1274;112546;-72
2022/01/21 09:51:53;;;;;;;20.60;6.20;;;;;;;-2.24;68.07;98787.55;106062;1274;106487;-71
2022/01/21 09:54:23;;;;;;;23.10;6.40;;;;;;;-2.23;68.36;98794.66;106093;1273;99242;-72
2022/01/21 09:56:56;;;;;;;16.40;5.40;;;;;;;-2.22;67.91;98789.42;105985;1274;99310;-71
2022/01/21 09:59:27;;;;;;;21.80;6.40;;;;;;;-2.19;68.15;98791.45;106153;1274;112814;-71
2022/01/21 10:02:00;;;;;;;18.80;5.90;;;;;;;-2.14;68.11;98794.09;106178;1274;99824;-71
2022/01/21 10:04:31;;;;;;;15.10;4.90;;;;;;;-2.10;67.97;98794.00;106186;1274;107851;-71
2022/01/21 10:07:00;;;;;;;20.70;6.50;;;;;;;-2.07;68.24;98798.26;106132;1273;99310;-70
2022/01/21 10:09:29;;;;;;;23.50;6.80;;;;;;;-2.07;68.38;98796.02;106069;1274;99297;-70
2022/01/21 10:11:59;;;;;;;18.80;5.60;;;;;;;-2.06;68.30;98793.04;106108;1274;112827;-72
2022/01/21 10:14:30;;;;;;;19.20;6.10;;;;;;;-2.05;67.95;98797.52;106149;1273;99065;-72
2022/01/21 10:16:59;;;;;;;20.20;5.30;;;;;;;-2.03;68.09;98793.31;106156;1274;106754;-72
2022/01/21 10:19:39;;;;;;;18.20;6.90;;;;;;;-2.00;68.15;98794.94;106175;1274;99212;-72
2022/01/21 10:22:12;;;;;;;20.40;6.50;;;;;;;-1.98;68.12;98788.28;106119;1274;99307;-74
2022/01/21 10:25:03;;;;;;;18.30;5.60;;;;;;;-1.97;67.98;98789.82;106011;1274;111382;-73
2022/01/21 10:27:40;;;;;;;20.60;6.70;;;;;;;-1.98;68.62;98793.85;106172;1274;99320;-71
2022/01/21 10:30:38;;;;;;;21.40;6.70;;;;;;;-2.00;69.16;98790.43;106151;1274;107605;-71
2022/01/21 10:33:26;;;;;;;23.10;7.50;;;;;;;-1.98;69.18;98799.59;105992;1274;99248;-72
2022/01/21 10:36:30;;;;;;;21.20;6.90;;;;;;;-1.99;68.83;98795.95;106114;1274;99211;-71
2022/01/21 10:39:11;;;;;;;17.90;6.80;;;;;;;-1.99;68.82;98795.79;105903;1274;112777;-72
2022/01/21 10:41:44;;;;;;;19.90;6.70;;;;;;;-1.98;68.92;98795.77;106027;1274;99304;-71
2022/01/21 10:44:17;;;;;;;23.30;7.80;;;;;;;-1.94;69.05;98785.75;106011;1274;107783;-70
2022/01/21 10:47:10;;;;;;;21.40;6.20;;;;;;;-1.88;68.72;98783.69;106142;1273;99243;-71
2022/01/21 10:49:42;;;;;;;21.20;6.10;;;;;;;-1.83;68.60;98780.23;106187;1274;99249;-75
2022/01/21 10:52:15;;;;;;;32.00;8.80;;;;;;;-1.75;68.62;98779.52;106039;1274;112850;-71
2022/01/21 10:54:50;;;;;;;25.40;7.50;;;;;;;-1.69;68.65;98779.54;106234;1273;99361;-72
2022/01/21 10:57:21;;;;;;;20.40;7.30;;;;;;;-1.63;68.63;98781.27;106178;1274;108101;-73
2022/01/21 11:00:07;;;;;;;19.80;7.10;;;;;;;-1.59;68.75;98782.03;106188;1274;99236;-72
2022/01/21 11:02:40;;;;;;;21.30;7.50;;;;;;;-1.57;68.75;98782.84;106129;1274;99151;-71
2022/01/21 11:05:17;;;;;;;24.50;8.00;;;;;;;-1.53;68.89;98779.77;106123;1273;112699;-71
2022/01/21 11:07:48;;;;;;;26.60;9.40;;;;;;;-1.49;68.58;98783.86;106135;1272;99626;-72
2022/01/21 11:10:32;;;;;;;22.20;7.80;;;;;;;-1.48;68.86;98784.88;106101;1272;108376;-72
2022/01/21 11:13:20;;;;;;;23.70;7.30;;;;;;;-1.52;69.89;98784.45;106019;1273;99293;-72
2022/01/21 11:15:57;;;;;;;24.70;7.40;;;;;;;-1.55;70.41;98790.29;105713;1274;99939;-72
2022/01/21 11:18:56;;;;;;;23.70;7.40;;;;;;;-1.56;69.54;98794.48;105856;1274;112718;-69
2022/01/21 11:21:43;;;;;;;27.10;9.60;;;;;;;-1.60;69.28;98789.20;106060;1274;99100;-72
2022/01/21 11:24:13;;;;;;;24.70;8.50;;;;;;;-1.60;69.43;98792.33;106040;1274;107735;-72
2022/01/21 11:26:44;;;;;;;31.00;10.90;;;;;;;-1.59;69.29;98791.41;106057;1274;99282;-71
2022/01/21 11:29:13;;;;;;;28.50;10.00;;;;;;;-1.55;69.35;98792.00;106013;1274;99217;-75
2022/01/21 11:31:41;;;;;;;31.60;10.60;;;;;;;-1.51;69.35;98790.87;105975;1274;111663;-71
2022/01/21 11:34:14;;;;;;;25.20;9.50;;;;;;;-1.48;69.34;98790.09;106074;1274;99370;-72
2022/01/21 11:36:42;;;;;;;24.70;7.80;;;;;;;-1.45;69.25;98789.84;105887;1273;107711;-72
2022/01/21 11:39:12;;;;;;;27.60;9.60;;;;;;;-1.48;69.28;98786.43;106171;1273;99310;-71
2022/01/21 11:41:43;;;;;;;29.20;9.50;;;;;;;-1.48;69.31;98790.09;106163;1274;99425;-72
2022/01/21 11:44:11;;;;;;;23.60;8.00;;;;;;;-1.52;69.10;98785.31;106159;1274;112704;-70
2022/01/21 11:46:58;;;;;;;29.40;8.00;;;;;;;-1.54;69.26;98780.68;106107;1274;99972;-71
2022/01/21 11:49:32;;;;;;;27.70;8.50;;;;;;;-1.54;69.04;98781.04;106031;1273;108415;-72
2022/01/21 11:52:18;;;;;;;23.50;8.00;;;;;;;-1.55;69.34;98786.81;106148;1273;99191;-72
2022/01/21 11:54:49;;;;;;;28.10;9.00;;;;;;;-1.58;69.26;98775.42;106132;1274;99820;-71
2022/01/21 11:57:30;;;;;;;28.80;8.70;;;;;;;-1.61;69.19;98775.14;106136;1274;112734;-70
2022/01/21 12:00:05;;;;;;;28.60;8.80;;;;;;;-1.62;69.12;98771.88;106008;1274;99128;-70
2022/01/21 12:02:38;;;;;;;17.00;5.80;;;;;;;-1.67;69.34;98770.79;106088;1274;108744;-72
2022/01/21 12:05:09;;;;;;;;;;;;;;;-1.71;69.25;98766.55;106176;1274;99252;-72
2022/01/21 12:07:37;;;;;;;23.50;7.00;;;;;;;-1.77;69.28;98767.23;106068;1273;99415;-72
2022/01/21 12:10:11;;;;;;;19.20;7.00;;;;;;;-1.75;69.21;98764.58;105966;1274;112679;-73
2022/01/21 12:12:44;;;;;;;22.40;6.80;;;;;;;-1.75;69.23;98765.60;106198;1272;99230;-71
2022/01/21 12:18:23;;;;;;;25.30;7.80;;;;;;;-1.83;69.41;98770.70;106049;1274;99124;-71